Time;durP1;ratioP1;P1;durP2;ratioP2;P2;SDS_P1;SDS_P2;PMS_P1;PMS_P2;Temp;Humidity;BMP_temperature;BMP_pressure;BME280_temperature;BME280_humidity;BME280_pressure;Samples;Min_cycle;Max_cycle;Signal;HPM_P1;HPM_P2
2023/10/05 00:02:08;;;;;;;13.13;4.33;;;12.10;74.20;;;;;;5108015;28;20495;-81
2023/10/05 00:04:41;;;;;;;11.60;4.87;;;12.10;74.20;;;;;;5103668;28;20546;-79
2023/10/05 00:07:19;;;;;;;10.03;4.20;;;12.10;74.20;;;;;;5107555;28;20535;-79
2023/10/05 00:09:48;;;;;;;15.53;4.53;;;12.10;74.30;;;;;;5086086;28;20448;-79
2023/10/05 00:12:21;;;;;;;9.97;4.10;;;12.10;74.20;;;;;;5107765;28;21034;-81
2023/10/05 00:15:04;;;;;;;11.80;4.00;;;12.10;74.10;;;;;;5105251;28;20468;-79
2023/10/05 00:17:37;;;;;;;8.03;3.70;;;12.00;74.10;;;;;;5105143;28;20443;-80
2023/10/05 00:20:09;;;;;;;7.70;3.77;;;12.00;74.00;;;;;;5105953;28;20937;-82
2023/10/05 00:22:40;;;;;;;10.50;4.67;;;12.00;73.90;;;;;;5104994;28;20811;-79
2023/10/05 00:25:10;;;;;;;10.83;4.30;;;11.90;73.90;;;;;;5106550;28;20954;-80
2023/10/05 00:27:38;;;;;;;8.83;3.63;;;11.90;73.90;;;;;;5088277;28;20459;-81
2023/10/05 00:30:08;;;;;;;10.87;4.70;;;11.90;73.90;;;;;;5103941;28;20510;-80
2023/10/05 00:32:38;;;;;;;10.47;4.60;;;11.90;73.90;;;;;;5103029;28;21019;-81
2023/10/05 00:35:16;;;;;;;11.07;5.57;;;11.90;74.10;;;;;;5099840;28;20456;-81
2023/10/05 00:37:48;;;;;;;16.53;4.57;;;11.90;74.10;;;;;;5090523;28;20452;-81
2023/10/05 00:40:27;;;;;;;9.30;3.90;;;11.90;74.20;;;;;;5083920;28;20463;-81
2023/10/05 00:43:02;;;;;;;10.30;5.00;;;11.90;74.20;;;;;;5100008;28;20500;-79
2023/10/05 00:45:33;;;;;;;11.93;4.73;;;11.90;74.20;;;;;;5104864;28;20471;-82
2023/10/05 00:48:10;;;;;;;12.33;4.57;;;11.90;74.20;;;;;;5104129;28;20481;-82
2023/10/05 00:50:39;;;;;;;14.23;6.07;;;11.90;74.20;;;;;;5106056;28;20444;-81
2023/10/05 00:53:10;;;;;;;10.00;4.13;;;11.90;74.20;;;;;;5107645;28;20571;-80
2023/10/05 00:55:41;;;;;;;12.03;5.27;;;11.90;74.20;;;;;;5101078;28;20492;-81
2023/10/05 00:58:12;;;;;;;12.17;4.90;;;11.90;74.20;;;;;;5089632;28;20496;-80
2023/10/05 01:00:50;;;;;;;12.27;4.87;;;11.90;74.20;;;;;;5103577;28;20924;-81
2023/10/05 01:03:26;;;;;;;8.47;4.30;;;11.90;74.30;;;;;;5085235;28;20481;-79
2023/10/05 01:06:11;;;;;;;9.37;4.13;;;11.90;74.40;;;;;;5103146;28;21315;-80
2023/10/05 01:08:49;;;;;;;10.87;4.10;;;11.90;74.40;;;;;;5088272;28;20527;-79
2023/10/05 01:11:26;;;;;;;12.60;4.90;;;11.90;74.40;;;;;;5085084;28;20460;-79
2023/10/05 01:14:00;;;;;;;17.40;5.97;;;11.90;74.40;;;;;;5088415;28;20961;-80
2023/10/05 01:16:32;;;;;;;14.63;5.80;;;11.90;74.50;;;;;;5109651;28;20447;-80
2023/10/05 01:19:02;;;;;;;12.20;4.83;;;11.90;74.50;;;;;;5089803;28;21174;-80
2023/10/05 01:21:31;;;;;;;8.83;4.13;;;11.90;74.60;;;;;;5088127;28;20445;-81
2023/10/05 01:24:00;;;;;;;9.73;4.63;;;11.90;74.60;;;;;;5090337;28;20961;-80
2023/10/05 01:26:28;;;;;;;12.80;5.10;;;11.90;74.60;;;;;;5106293;28;20567;-79
2023/10/05 01:28:56;;;;;;;9.07;4.40;;;12.00;74.50;;;;;;5089987;28;20958;-80
2023/10/05 01:31:24;;;;;;;10.50;4.40;;;12.00;74.50;;;;;;5105710;28;20482;-81
2023/10/05 01:33:52;;;;;;;12.23;5.10;;;12.00;74.50;;;;;;5089418;28;20504;-79
2023/10/05 01:36:22;;;;;;;8.30;3.40;;;11.90;74.50;;;;;;5107346;28;21058;-79
2023/10/05 01:38:54;;;;;;;10.70;4.50;;;11.90;74.50;;;;;;5090979;28;20451;-79
2023/10/05 01:41:27;;;;;;;13.70;5.20;;;11.90;74.60;;;;;;5104066;28;20444;-82
2023/10/05 01:43:57;;;;;;;11.40;4.77;;;11.90;74.60;;;;;;5090934;28;20455;-78
2023/10/05 01:46:25;;;;;;;10.20;4.33;;;11.90;74.60;;;;;;5089234;28;21004;-81
2023/10/05 01:48:56;;;;;;;11.43;4.57;;;11.90;74.70;;;;;;5090840;28;20460;-80
2023/10/05 01:51:25;;;;;;;11.87;4.43;;;11.90;74.70;;;;;;5098652;28;20480;-80
2023/10/05 01:54:05;;;;;;;10.43;3.93;;;11.90;74.70;;;;;;5091220;28;20479;-81
2023/10/05 01:56:34;;;;;;;11.17;3.97;;;11.90;74.60;;;;;;5107438;28;20460;-81
2023/10/05 01:59:06;;;;;;;9.63;4.10;;;11.90;74.60;;;;;;5090757;28;20509;-79
2023/10/05 02:01:39;;;;;;;11.23;4.63;;;11.80;74.60;;;;;;5093186;28;20464;-80
2023/10/05 02:04:09;;;;;;;14.93;4.20;;;11.80;74.60;;;;;;5107798;28;20460;-81
2023/10/05 02:06:42;;;;;;;9.90;4.30;;;11.80;74.60;;;;;;5114632;28;20467;-81
2023/10/05 02:09:11;;;;;;;11.47;4.70;;;11.80;74.70;;;;;;5105056;28;20459;-80
2023/10/05 02:11:41;;;;;;;11.23;4.13;;;11.80;74.60;;;;;;5108807;28;20451;-81
2023/10/05 02:14:12;;;;;;;8.80;3.93;;;11.80;74.70;;;;;;5092877;28;20468;-81
2023/10/05 02:16:42;;;;;;;10.40;4.50;;;11.80;74.80;;;;;;5091182;28;20455;-81
2023/10/05 02:19:10;;;;;;;14.20;5.43;;;11.80;74.70;;;;;;5102450;28;20452;-81
2023/10/05 02:21:39;;;;;;;13.70;4.87;;;11.80;74.80;;;;;;5091171;28;20462;-81
2023/10/05 02:24:16;;;;;;;10.53;4.53;;;11.80;74.80;;;;;;5107046;28;20538;-81
2023/10/05 02:27:09;;;;;;;8.63;4.50;;;11.80;74.90;;;;;;5091976;28;20564;-81
2023/10/05 02:29:42;;;;;;;12.77;5.77;;;11.70;75.00;;;;;;5111144;28;21245;-82
2023/10/05 02:32:21;;;;;;;9.47;4.13;;;11.80;75.10;;;;;;5092873;28;20479;-81
2023/10/05 02:34:59;;;;;;;10.60;4.57;;;11.80;75.10;;;;;;5089427;28;20926;-79
2023/10/05 02:37:28;;;;;;;9.30;4.30;;;11.80;75.00;;;;;;5103964;28;20444;-81
2023/10/05 02:39:57;;;;;;;10.40;4.67;;;11.80;74.90;;;;;;5089995;28;20505;-80
2023/10/05 02:42:27;;;;;;;9.90;5.03;;;11.80;74.80;;;;;;5088947;28;20462;-81
2023/10/05 02:44:56;;;;;;;14.93;5.70;;;11.70;74.90;;;;;;5092373;28;20505;-81
2023/10/05 02:47:24;;;;;;;13.43;4.30;;;11.70;74.90;;;;;;5091294;28;20521;-81
2023/10/05 02:49:52;;;;;;;10.43;4.80;;;11.70;74.90;;;;;;5106440;28;20493;-80
2023/10/05 02:52:20;;;;;;;13.97;5.20;;;11.60;74.80;;;;;;5107043;28;20466;-80
2023/10/05 02:54:49;;;;;;;15.13;5.20;;;11.60;75.00;;;;;;5091849;28;20483;-81
2023/10/05 02:57:19;;;;;;;10.63;5.60;;;11.60;75.10;;;;;;5089819;28;20460;-80
2023/10/05 02:59:50;;;;;;;9.57;4.40;;;11.60;75.20;;;;;;5091651;28;20864;-82
2023/10/05 03:02:18;;;;;;;11.03;5.07;;;11.60;75.30;;;;;;5088962;28;20468;-81
2023/10/05 03:04:48;;;;;;;11.73;4.90;;;11.60;75.20;;;;;;5087767;28;20456;-81
2023/10/05 03:07:25;;;;;;;9.20;5.03;;;11.60;75.30;;;;;;5104651;28;20468;-81
2023/10/05 03:09:59;;;;;;;9.90;4.33;;;11.60;75.40;;;;;;5108163;28;20456;-80
2023/10/05 03:12:33;;;;;;;9.10;4.70;;;11.60;75.40;;;;;;5097865;28;20492;-81
2023/10/05 03:15:08;;;;;;;9.73;4.70;;;11.60;75.50;;;;;;5091097;28;20459;-80
2023/10/05 03:17:45;;;;;;;10.83;4.50;;;11.70;75.60;;;;;;5089334;28;20816;-80
2023/10/05 03:20:18;;;;;;;12.53;5.63;;;11.70;75.70;;;;;;5103158;28;20460;-81
2023/10/05 03:22:47;;;;;;;11.53;5.23;;;11.80;75.70;;;;;;5090265;28;20460;-80
2023/10/05 03:25:16;;;;;;;11.93;5.40;;;11.80;75.80;;;;;;5091058;28;20455;-80
2023/10/05 03:27:46;;;;;;;12.50;5.80;;;11.90;75.90;;;;;;5091736;28;20518;-82
2023/10/05 03:30:16;;;;;;;14.57;5.27;;;11.90;75.90;;;;;;5090418;28;20458;-81
2023/10/05 03:32:48;;;;;;;11.23;5.57;;;11.90;75.90;;;;;;5094207;28;20981;-79
2023/10/05 03:35:22;;;;;;;12.27;6.17;;;11.90;75.90;;;;;;5107835;28;20496;-80
2023/10/05 03:37:50;;;;;;;13.10;5.47;;;11.90;76.00;;;;;;5106037;28;20497;-81
2023/10/05 03:40:22;;;;;;;11.10;5.47;;;11.90;76.00;;;;;;5103570;28;20491;-81
2023/10/05 03:42:57;;;;;;;12.20;5.20;;;11.90;76.10;;;;;;5101046;28;21243;-80
2023/10/05 03:45:32;;;;;;;11.87;5.03;;;12.00;76.10;;;;;;5104825;28;20456;-81
2023/10/05 03:48:01;;;;;;;16.10;5.50;;;12.00;76.20;;;;;;5107531;28;20500;-80
2023/10/05 03:50:31;;;;;;;12.23;6.00;;;12.00;76.30;;;;;;5107801;28;20452;-81
2023/10/05 03:53:00;;;;;;;11.30;6.00;;;12.10;76.30;;;;;;5102428;28;20452;-80
2023/10/05 03:55:28;;;;;;;11.83;5.87;;;12.10;76.40;;;;;;5089533;28;20464;-81
2023/10/05 03:57:57;;;;;;;11.63;5.07;;;12.10;76.40;;;;;;5090134;28;20440;-80
2023/10/05 04:00:35;;;;;;;13.80;5.67;;;12.20;76.40;;;;;;5085312;28;20820;-80
2023/10/05 04:03:06;;;;;;;16.00;7.10;;;12.20;76.40;;;;;;5095911;28;20443;-79
2023/10/05 04:05:39;;;;;;;12.10;5.90;;;12.20;76.30;;;;;;5087424;28;20456;-81
2023/10/05 04:08:12;;;;;;;13.17;6.60;;;12.20;76.40;;;;;;5106359;28;21197;-80
2023/10/05 04:10:47;;;;;;;14.73;5.33;;;12.20;76.40;;;;;;5102894;28;20594;-81
2023/10/05 04:13:17;;;;;;;10.33;4.70;;;12.20;76.40;;;;;;5104007;28;20448;-80
2023/10/05 04:15:45;;;;;;;12.40;5.37;;;12.20;76.40;;;;;;5091034;28;20462;-80
2023/10/05 04:18:20;;;;;;;15.27;5.77;;;12.20;76.40;;;;;;5105344;28;20456;-81
2023/10/05 04:20:50;;;;;;;12.03;4.70;;;12.20;76.40;;;;;;5107075;28;20459;-80
2023/10/05 04:23:25;;;;;;;12.00;4.83;;;12.10;76.50;;;;;;5105222;28;20444;-82
2023/10/05 04:25:56;;;;;;;13.23;5.83;;;12.10;76.50;;;;;;5091561;28;20452;-81
2023/10/05 04:28:32;;;;;;;9.93;5.17;;;12.10;76.50;;;;;;5107095;28;20487;-82
2023/10/05 04:31:01;;;;;;;10.93;4.97;;;12.10;76.60;;;;;;5087396;28;21046;-80
2023/10/05 04:33:31;;;;;;;12.57;5.67;;;12.10;76.70;;;;;;5104340;28;20481;-80
2023/10/05 04:36:01;;;;;;;16.33;6.20;;;12.10;76.70;;;;;;5089278;28;20508;-80
2023/10/05 04:38:29;;;;;;;14.30;5.80;;;12.10;76.70;;;;;;5089841;28;20551;-79
2023/10/05 04:40:59;;;;;;;10.97;5.53;;;12.10;76.80;;;;;;5090796;28;20458;-79
2023/10/05 04:43:27;;;;;;;8.10;5.07;;;12.20;76.80;;;;;;5105935;28;20455;-80
2023/10/05 04:45:55;;;;;;;11.10;5.73;;;12.20;76.80;;;;;;5087508;28;20808;-80
2023/10/05 04:48:24;;;;;;;10.73;5.67;;;12.20;76.80;;;;;;5085602;28;20472;-80
2023/10/05 04:51:00;;;;;;;11.20;6.20;;;12.20;76.80;;;;;;5107711;28;20466;-79
2023/10/05 04:53:30;;;;;;;15.37;6.90;;;12.20;76.80;;;;;;5106545;28;20504;-81
2023/10/05 04:56:12;;;;;;;10.60;5.43;;;12.20;76.80;;;;;;5107909;28;20448;-79
2023/10/05 04:59:18;;;;;;;12.70;6.43;;;12.20;76.90;;;;;;5107421;28;20460;-79
2023/10/05 05:01:56;;;;;;;14.63;6.10;;;12.20;76.90;;;;;;5090891;28;20471;-80
2023/10/05 05:04:41;;;;;;;13.97;6.27;;;12.20;76.90;;;;;;5107093;28;20520;-81
2023/10/05 05:07:11;;;;;;;14.00;5.90;;;12.20;77.00;;;;;;5106972;28;20451;-80
2023/10/05 05:09:41;;;;;;;14.30;5.80;;;12.20;77.00;;;;;;5108488;28;20463;-81
2023/10/05 05:12:16;;;;;;;14.47;5.97;;;12.20;77.10;;;;;;5089948;28;20924;-80
2023/10/05 05:14:45;;;;;;;12.23;5.47;;;12.20;77.10;;;;;;5106761;28;20451;-81
2023/10/05 05:17:15;;;;;;;12.03;6.40;;;12.20;77.10;;;;;;5110172;28;20447;-79
2023/10/05 05:19:44;;;;;;;10.50;5.23;;;12.20;77.20;;;;;;5109316;28;20460;-81
2023/10/05 05:22:14;;;;;;;11.90;6.13;;;12.20;77.20;;;;;;5111174;28;20451;-81
2023/10/05 05:24:44;;;;;;;11.60;6.30;;;12.20;77.20;;;;;;5094640;28;20443;-81
2023/10/05 05:27:21;;;;;;;12.40;5.90;;;12.20;77.30;;;;;;5110379;28;20462;-79
2023/10/05 05:29:51;;;;;;;11.53;5.50;;;12.20;77.30;;;;;;5104672;28;20536;-81
2023/10/05 05:32:22;;;;;;;11.10;5.90;;;12.30;77.30;;;;;;5104223;28;20474;-81
2023/10/05 05:34:51;;;;;;;12.23;6.47;;;12.20;77.20;;;;;;5108930;28;20841;-79
2023/10/05 05:37:28;;;;;;;12.40;7.67;;;12.20;77.20;;;;;;5112334;28;20455;-81
2023/10/05 05:39:59;;;;;;;11.87;6.90;;;12.20;77.30;;;;;;5111329;28;20460;-82
2023/10/05 05:42:30;;;;;;;14.50;6.10;;;12.20;77.30;;;;;;5109328;28;20447;-78
2023/10/05 05:44:58;;;;;;;12.43;7.07;;;12.20;77.40;;;;;;5114742;28;20439;-81
2023/10/05 05:47:31;;;;;;;13.23;6.40;;;12.20;77.40;;;;;;5095056;28;20463;-80
2023/10/05 05:50:00;;;;;;;12.60;6.23;;;12.20;77.40;;;;;;5094861;28;20479;-80
2023/10/05 05:52:31;;;;;;;12.90;6.70;;;12.20;77.40;;;;;;5109160;28;21110;-81
2023/10/05 05:55:09;;;;;;;12.50;7.00;;;12.20;77.50;;;;;;5087906;28;20448;-81
2023/10/05 05:57:37;;;;;;;11.27;6.37;;;12.20;77.40;;;;;;5109063;28;20481;-80
2023/10/05 06:00:12;;;;;;;12.30;6.20;;;12.20;77.50;;;;;;5109660;28;20475;-80
2023/10/05 06:02:41;;;;;;;11.73;5.37;;;12.20;77.70;;;;;;5106094;28;20513;-80
2023/10/05 06:05:10;;;;;;;11.60;6.07;;;12.20;77.70;;;;;;5090253;28;20499;-80
2023/10/05 06:07:40;;;;;;;13.60;6.50;;;12.20;77.70;;;;;;5088292;28;20453;-81
2023/10/05 06:10:12;;;;;;;11.63;6.20;;;12.30;77.70;;;;;;5080503;28;21269;-79
2023/10/05 06:12:48;;;;;;;10.87;6.30;;;12.30;77.70;;;;;;5088079;28;20510;-80
2023/10/05 06:15:16;;;;;;;17.67;7.07;;;12.30;77.70;;;;;;5097843;28;20876;-79
2023/10/05 06:17:44;;;;;;;10.53;5.60;;;12.30;77.90;;;;;;5089053;28;20547;-79
2023/10/05 06:20:14;;;;;;;17.37;5.47;;;12.30;77.90;;;;;;5102991;28;20453;-80
2023/10/05 06:22:50;;;;;;;12.10;5.23;;;12.30;78.00;;;;;;5088143;28;20455;-79
2023/10/05 06:25:18;;;;;;;11.90;6.07;;;12.40;78.10;;;;;;5088082;28;20808;-80
2023/10/05 06:27:47;;;;;;;14.70;5.23;;;12.40;78.00;;;;;;5089012;28;20452;-80
2023/10/05 06:30:16;;;;;;;15.80;5.50;;;12.40;78.00;;;;;;5088285;28;20520;-79
2023/10/05 06:32:44;;;;;;;11.37;5.70;;;12.40;78.10;;;;;;5087122;28;20488;-80
2023/10/05 06:35:13;;;;;;;10.83;4.80;;;12.40;78.10;;;;;;5089725;28;21066;-80
2023/10/05 06:37:41;;;;;;;12.10;5.97;;;12.40;78.10;;;;;;5088360;28;20457;-80
2023/10/05 06:40:13;;;;;;;12.60;5.33;;;12.50;78.10;;;;;;5090797;28;20494;-80
2023/10/05 06:42:43;;;;;;;14.80;5.83;;;12.50;78.30;;;;;;5086990;28;20473;-79
2023/10/05 06:45:13;;;;;;;11.07;4.83;;;12.50;78.30;;;;;;5087463;28;20450;-79
2023/10/05 06:47:42;;;;;;;13.90;4.67;;;12.50;78.30;;;;;;5088266;28;20460;-80
2023/10/05 06:50:11;;;;;;;11.20;5.50;;;12.60;78.40;;;;;;5086652;28;20507;-81
2023/10/05 06:52:42;;;;;;;12.60;6.20;;;12.60;78.40;;;;;;5089529;28;20448;-81
2023/10/05 06:55:14;;;;;;;10.83;5.53;;;12.60;78.50;;;;;;5087708;28;20461;-80
2023/10/05 06:57:43;;;;;;;13.10;7.10;;;12.60;78.50;;;;;;5088189;28;20813;-79
2023/10/05 07:00:16;;;;;;;12.43;6.73;;;12.70;78.60;;;;;;5087144;28;20505;-79
2023/10/05 07:02:45;;;;;;;12.40;6.87;;;12.70;78.80;;;;;;5108070;28;20828;-79
2023/10/05 07:05:17;;;;;;;10.17;5.67;;;12.70;78.80;;;;;;5110776;28;20450;-81
2023/10/05 07:07:45;;;;;;;16.17;6.63;;;12.80;78.90;;;;;;5108062;28;20440;-80
2023/10/05 07:10:15;;;;;;;12.63;6.13;;;12.80;79.00;;;;;;5107226;28;20480;-79
2023/10/05 07:12:46;;;;;;;11.40;5.30;;;12.90;79.20;;;;;;5089420;28;20440;-79
2023/10/05 07:15:15;;;;;;;14.33;5.80;;;12.90;79.20;;;;;;5103231;28;20500;-80
2023/10/05 07:17:43;;;;;;;10.20;5.70;;;13.00;79.20;;;;;;5105191;28;20463;-80
2023/10/05 07:20:12;;;;;;;11.30;5.97;;;13.00;79.30;;;;;;5107980;28;20507;-79
2023/10/05 07:22:41;;;;;;;16.37;6.20;;;13.10;79.40;;;;;;5108826;28;20459;-80
2023/10/05 07:25:10;;;;;;;10.93;6.00;;;13.10;79.50;;;;;;5110398;28;20501;-80
2023/10/05 07:27:41;;;;;;;12.80;6.30;;;13.20;79.60;;;;;;5109140;28;20455;-80
2023/10/05 07:30:14;;;;;;;16.90;6.70;;;13.20;79.70;;;;;;5102760;28;20625;-79
2023/10/05 07:32:42;;;;;;;13.30;6.23;;;13.30;79.70;;;;;;5079587;28;20454;-80
2023/10/05 07:35:13;;;;;;;15.93;6.40;;;13.40;79.80;;;;;;5094976;28;20446;-80
2023/10/05 07:37:41;;;;;;;14.13;6.63;;;13.40;80.00;;;;;;5095374;28;20963;-80
2023/10/05 07:40:13;;;;;;;16.23;5.87;;;13.50;80.00;;;;;;5075841;28;20960;-81
2023/10/05 07:42:43;;;;;;;17.67;7.40;;;13.50;80.10;;;;;;5094663;28;20455;-80
2023/10/05 07:45:13;;;;;;;12.60;6.37;;;13.50;80.20;;;;;;5100303;28;20945;-80
2023/10/05 07:47:42;;;;;;;21.33;6.93;;;13.60;80.40;;;;;;5072357;28;20524;-80
2023/10/05 07:50:11;;;;;;;12.07;5.50;;;13.70;80.50;;;;;;5095191;28;20978;-80
2023/10/05 07:52:43;;;;;;;17.27;5.93;;;13.70;80.50;;;;;;5088575;28;20466;-80
2023/10/05 07:55:11;;;;;;;16.03;6.50;;;13.80;80.50;;;;;;5092489;28;21191;-81
2023/10/05 07:57:39;;;;;;;17.23;6.80;;;13.90;80.60;;;;;;5089703;28;20514;-81
2023/10/05 08:00:12;;;;;;;18.20;5.90;;;13.90;80.60;;;;;;5089895;28;20493;-80
2023/10/05 08:02:41;;;;;;;13.03;6.00;;;14.00;80.70;;;;;;5085511;28;20459;-78
2023/10/05 08:05:12;;;;;;;18.23;5.97;;;14.10;80.80;;;;;;5085420;28;20448;-80
2023/10/05 08:07:41;;;;;;;17.03;6.23;;;14.20;80.80;;;;;;5083615;28;20506;-79
2023/10/05 08:10:15;;;;;;;20.73;6.43;;;14.30;80.90;;;;;;5082484;28;20526;-81
2023/10/05 08:12:43;;;;;;;19.20;6.40;;;14.40;80.90;;;;;;5086260;28;20462;-79
2023/10/05 08:15:18;;;;;;;20.83;6.43;;;14.40;80.80;;;;;;5083605;28;20473;-80
2023/10/05 08:17:47;;;;;;;13.10;5.53;;;14.50;80.90;;;;;;5069760;28;20478;-79
2023/10/05 08:20:17;;;;;;;18.57;7.10;;;14.60;80.80;;;;;;5068840;28;20542;-79
2023/10/05 08:22:51;;;;;;;21.23;5.80;;;14.70;80.80;;;;;;5081702;28;20460;-81
2023/10/05 08:25:19;;;;;;;21.10;5.80;;;14.70;80.80;;;;;;5067378;28;20483;-78
2023/10/05 08:27:48;;;;;;;15.40;6.27;;;14.80;80.80;;;;;;5081730;28;20471;-79
2023/10/05 08:30:17;;;;;;;17.27;6.20;;;14.80;80.80;;;;;;5084126;28;20805;-80
2023/10/05 08:32:47;;;;;;;18.63;5.50;;;14.90;80.90;;;;;;5084148;28;20454;-79
2023/10/05 08:35:18;;;;;;;18.53;6.90;;;14.90;80.90;;;;;;5079266;28;20458;-79
2023/10/05 08:37:49;;;;;;;22.00;5.87;;;15.00;80.90;;;;;;5099764;28;20960;-80
2023/10/05 08:43:10;;;;;;;15.47;5.60;;;15.10;81.00;;;;;;5098513;28;20529;-82
2023/10/05 08:45:45;;;;;;;14.97;5.60;;;15.10;80.90;;;;;;5097962;28;20462;-80
2023/10/05 08:48:19;;;;;;;21.43;6.77;;;15.20;80.90;;;;;;5096982;28;20455;-80
2023/10/05 08:50:52;;;;;;;18.53;5.73;;;15.20;80.90;;;;;;5081757;28;20468;-78
2023/10/05 08:53:21;;;;;;;16.93;6.60;;;15.30;80.90;;;;;;5096101;28;20483;-79
2023/10/05 08:55:52;;;;;;;20.73;6.70;;;15.30;80.90;;;;;;5097875;28;20821;-79
2023/10/05 08:58:22;;;;;;;16.80;4.70;;;15.40;80.80;;;;;;5080784;28;20521;-79
2023/10/05 09:00:52;;;;;;;19.30;5.30;;;15.40;80.90;;;;;;5092776;28;21019;-80
2023/10/05 09:03:36;;;;;;;17.97;5.83;;;15.50;80.90;;;;;;5092622;28;20449;-79
2023/10/05 09:06:16;;;;;;;13.13;5.00;;;15.50;80.80;;;;;;5083483;28;20453;-79
2023/10/05 09:08:51;;;;;;;11.60;4.90;;;15.50;80.70;;;;;;5091481;28;20484;-80
2023/10/05 09:11:31;;;;;;;15.67;5.30;;;15.60;80.50;;;;;;5098050;28;21127;-81
2023/10/05 09:14:08;;;;;;;11.57;5.03;;;15.60;80.40;;;;;;5092634;28;20445;-80
2023/10/05 09:16:42;;;;;;;17.17;5.87;;;15.70;80.40;;;;;;5092872;28;21138;-79
2023/10/05 09:19:12;;;;;;;14.70;5.00;;;15.70;80.30;;;;;;5088119;28;20465;-80
2023/10/05 09:21:55;;;;;;;13.57;5.03;;;15.70;80.20;;;;;;5084998;28;20485;-79
2023/10/05 09:24:23;;;;;;;16.80;5.50;;;15.80;80.10;;;;;;5091377;28;20504;-79
2023/10/05 09:26:56;;;;;;;14.77;4.73;;;15.80;80.10;;;;;;5095337;28;21096;-80
2023/10/05 09:29:28;;;;;;;14.43;5.00;;;15.80;80.10;;;;;;5092247;28;20455;-80
2023/10/05 09:31:59;;;;;;;13.30;5.10;;;15.80;80.10;;;;;;5101837;28;20532;-81
2023/10/05 09:34:43;;;;;;;12.47;3.83;;;15.90;80.00;;;;;;5092721;28;20466;-78
2023/10/05 09:37:13;;;;;;;18.37;4.20;;;16.00;80.00;;;;;;5091856;28;20480;-80
2023/10/05 09:39:49;;;;;;;13.33;3.73;;;16.00;79.70;;;;;;5107116;28;20466;-80
2023/10/05 09:42:22;;;;;;;15.77;4.60;;;16.00;79.50;;;;;;5108459;28;20489;-80
2023/10/05 09:44:52;;;;;;;11.63;3.50;;;16.10;79.50;;;;;;5088894;28;20485;-80
2023/10/05 09:47:27;;;;;;;11.83;3.70;;;16.10;79.30;;;;;;5093885;28;20464;-81
2023/10/05 09:49:56;;;;;;;12.90;4.80;;;16.10;79.30;;;;;;5089733;28;20464;-79
2023/10/05 09:52:31;;;;;;;11.73;4.30;;;16.20;79.30;;;;;;5099553;28;20555;-80
2023/10/05 09:55:00;;;;;;;10.90;4.50;;;16.20;79.00;;;;;;5094546;28;20538;-81
2023/10/05 09:57:29;;;;;;;11.53;4.07;;;16.30;78.80;;;;;;5112092;28;20532;-81
2023/10/05 10:00:00;;;;;;;14.30;5.07;;;16.30;78.60;;;;;;5108706;28;20946;-81
2023/10/05 10:02:41;;;;;;;12.33;4.30;;;16.30;78.60;;;;;;5086391;28;20476;-79
2023/10/05 10:05:29;;;;;;;12.23;3.77;;;16.40;78.60;;;;;;5089753;28;20448;-82
2023/10/05 10:08:07;;;;;;;11.17;4.00;;;16.40;78.50;;;;;;5088722;28;20460;-81
2023/10/05 10:10:46;;;;;;;11.40;4.00;;;16.40;78.30;;;;;;5089062;28;20484;-80
2023/10/05 10:13:14;;;;;;;12.90;4.73;;;16.50;78.10;;;;;;5072112;28;20460;-79
2023/10/05 10:15:46;;;;;;;11.07;4.10;;;16.50;77.90;;;;;;5089063;28;20465;-81
2023/10/05 10:18:16;;;;;;;9.77;3.57;;;16.50;77.80;;;;;;5091178;28;20453;-81
2023/10/05 10:20:48;;;;;;;13.63;4.43;;;16.60;77.50;;;;;;5089575;28;20449;-81
2023/10/05 10:23:22;;;;;;;11.77;3.80;;;16.60;77.40;;;;;;5091241;28;20453;-81
2023/10/05 10:25:51;;;;;;;14.33;4.77;;;16.60;77.20;;;;;;5089733;28;20808;-80
2023/10/05 10:28:39;;;;;;;11.60;3.90;;;16.50;77.20;;;;;;5084245;28;20453;-81
2023/10/05 10:31:16;;;;;;;8.03;3.10;;;16.50;76.70;;;;;;5091590;28;20485;-80
2023/10/05 10:33:50;;;;;;;11.53;3.80;;;16.60;76.70;;;;;;5080220;28;20464;-81
2023/10/05 10:36:21;;;;;;;9.53;4.00;;;16.60;76.70;;;;;;5096573;28;20487;-80
2023/10/05 10:38:51;;;;;;;12.37;3.60;;;16.60;76.40;;;;;;5097919;28;21046;-80
2023/10/05 10:41:22;;;;;;;11.60;3.43;;;16.70;76.20;;;;;;5098308;28;20870;-82
2023/10/05 10:43:52;;;;;;;12.37;4.13;;;16.70;75.90;;;;;;5095473;28;20448;-80
2023/10/05 10:46:30;;;;;;;7.77;3.07;;;16.60;75.70;;;;;;5101463;28;20500;-80
2023/10/05 10:49:01;;;;;;;10.03;3.63;;;16.60;75.60;;;;;;5097161;28;20541;-81
2023/10/05 10:51:32;;;;;;;22.33;4.37;;;16.70;75.60;;;;;;5097680;28;20484;-81
2023/10/05 10:54:14;;;;;;;11.43;4.07;;;16.70;75.50;;;;;;5095164;28;20484;-80
2023/10/05 10:56:45;;;;;;;8.80;3.40;;;16.70;75.30;;;;;;5093767;28;20475;-81
2023/10/05 10:59:14;;;;;;;9.77;3.37;;;16.70;75.30;;;;;;5096463;28;20467;-81
2023/10/05 11:01:43;;;;;;;13.47;3.37;;;16.70;75.30;;;;;;5094789;28;20480;-79
2023/10/05 11:04:27;;;;;;;10.07;4.00;;;16.70;75.10;;;;;;5088519;28;20461;-80
2023/10/05 11:06:56;;;;;;;12.77;4.10;;;16.70;75.10;;;;;;5078245;28;20883;-82
2023/10/05 11:09:36;;;;;;;12.23;3.90;;;16.80;75.00;;;;;;5093880;28;20468;-81
2023/10/05 11:12:11;;;;;;;10.30;3.57;;;16.80;74.80;;;;;;5079489;28;20542;-81
2023/10/05 11:14:44;;;;;;;9.80;3.60;;;16.70;74.80;;;;;;5097447;28;20793;-80
2023/10/05 11:17:24;;;;;;;14.10;3.53;;;16.80;74.80;;;;;;5094437;28;20974;-81
2023/10/05 11:19:54;;;;;;;13.23;3.97;;;16.80;74.70;;;;;;5094808;28;20501;-81
2023/10/05 11:22:25;;;;;;;12.67;3.77;;;16.80;74.70;;;;;;5096967;28;20523;-81
2023/10/05 11:25:15;;;;;;;12.03;3.37;;;16.80;74.60;;;;;;5099845;28;20467;-82
2023/10/05 11:27:55;;;;;;;10.13;3.80;;;16.80;74.40;;;;;;5093074;28;20495;-81
2023/10/05 11:30:26;;;;;;;6.53;2.93;;;16.80;74.50;;;;;;5097115;28;21118;-80
2023/10/05 11:33:16;;;;;;;12.10;3.10;;;16.70;74.40;;;;;;5075789;28;20820;-81
2023/10/05 11:36:17;;;;;;;15.37;4.30;;;16.70;74.30;;;;;;5094620;28;20472;-80
2023/10/05 11:38:48;;;;;;;11.67;3.53;;;16.80;74.30;;;;;;5096049;28;20536;-79
2023/10/05 11:41:23;;;;;;;11.57;3.93;;;16.80;74.20;;;;;;5095272;28;20517;-78
2023/10/05 11:43:53;;;;;;;9.93;3.30;;;16.80;74.20;;;;;;5084007;28;20541;-80
2023/10/05 11:46:26;;;;;;;10.37;3.97;;;16.80;74.10;;;;;;5076229;28;20483;-81
2023/10/05 11:48:56;;;;;;;10.20;3.83;;;16.80;74.00;;;;;;5100531;28;20827;-81
2023/10/05 11:51:41;;;;;;;17.90;4.23;;;16.80;74.10;;;;;;5096261;28;21113;-80
2023/10/05 11:54:09;;;;;;;13.47;4.13;;;16.90;74.00;;;;;;5102525;28;20538;-79
2023/10/05 11:56:38;;;;;;;10.53;3.93;;;16.90;73.80;;;;;;5077697;28;20449;-80
2023/10/05 11:59:10;;;;;;;13.63;3.87;;;16.90;73.80;;;;;;5091753;28;20506;-79
2023/10/05 12:01:40;;;;;;;10.90;3.53;;;16.90;73.70;;;;;;5070843;28;20511;-80
2023/10/05 12:04:08;;;;;;;10.60;3.37;;;16.80;73.70;;;;;;5088286;28;20467;-80
2023/10/05 12:06:39;;;;;;;10.87;3.50;;;16.90;73.60;;;;;;5083814;28;20453;-81
2023/10/05 12:09:08;;;;;;;10.70;3.73;;;16.90;73.60;;;;;;5086213;28;20448;-81
2023/10/05 12:11:38;;;;;;;10.60;3.37;;;16.90;73.60;;;;;;5084652;28;20494;-80
2023/10/05 12:14:06;;;;;;;15.87;3.90;;;16.90;73.60;;;;;;5085563;28;21139;-79
2023/10/05 12:16:38;;;;;;;15.77;3.57;;;16.80;73.60;;;;;;5083692;28;20449;-81
2023/10/05 12:19:14;;;;;;;11.13;3.60;;;16.80;73.50;;;;;;5086711;28;20478;-81
2023/10/05 12:21:44;;;;;;;11.27;3.67;;;16.80;73.60;;;;;;5082988;28;20848;-80
2023/10/05 12:24:12;;;;;;;12.00;4.27;;;16.80;73.50;;;;;;5085559;28;20880;-81
2023/10/05 12:26:42;;;;;;;12.20;3.77;;;16.80;73.40;;;;;;5085870;28;20480;-81
2023/10/05 12:29:13;;;;;;;11.67;3.20;;;16.80;73.40;;;;;;5087252;28;20457;-81
2023/10/05 12:31:41;;;;;;;13.93;3.37;;;16.80;73.40;;;;;;5099036;28;20598;-80
2023/10/05 12:34:14;;;;;;;8.60;3.47;;;16.80;73.50;;;;;;5104384;28;20448;-81
2023/10/05 12:36:57;;;;;;;10.40;2.80;;;16.70;73.50;;;;;;5103750;28;20451;-80
2023/10/05 12:39:27;;;;;;;8.77;3.00;;;16.70;73.50;;;;;;5089305;28;20508;-81
2023/10/05 12:41:56;;;;;;;10.10;3.40;;;16.70;73.50;;;;;;5088413;28;20479;-81
2023/10/05 12:44:27;;;;;;;10.40;3.33;;;16.70;73.40;;;;;;5104500;28;20847;-81
2023/10/05 12:46:55;;;;;;;9.43;3.43;;;16.70;73.50;;;;;;5100113;28;20954;-79
2023/10/05 12:49:24;;;;;;;11.57;3.23;;;16.70;73.50;;;;;;5104415;28;20451;-81
2023/10/05 12:51:53;;;;;;;13.60;3.30;;;16.70;73.50;;;;;;5105088;28;20475;-81
2023/10/05 12:54:28;;;;;;;12.00;3.70;;;16.70;73.50;;;;;;5107479;28;20436;-80
2023/10/05 12:56:58;;;;;;;9.70;3.40;;;16.70;73.40;;;;;;5089094;28;20563;-79
2023/10/05 12:59:48;;;;;;;12.03;3.57;;;16.70;73.50;;;;;;5087423;28;20491;-82
2023/10/05 13:02:16;;;;;;;9.33;4.30;;;16.70;73.50;;;;;;5087655;28;20499;-78
2023/10/05 13:04:45;;;;;;;10.73;2.73;;;16.70;73.60;;;;;;5082270;28;20465;-82
2023/10/05 13:07:21;;;;;;;10.17;3.30;;;16.70;73.60;;;;;;5088863;28;20483;-80